Time;durP1;ratioP1;P1;durP2;ratioP2;P2;SDS_P1;SDS_P2;PMS_P1;PMS_P2;Temp;Humidity;BMP_temperature;BMP_pressure;BME280_temperature;BME280_humidity;BME280_pressure;Samples;Min_cycle;Max_cycle;Signal;HPM_P1;HPM_P2
2021/01/27 05:02:12;;;;;;;2.70;2.50;;;;;;;22.16;47.21;98502.00;24424209;23;20346;-78
2021/01/27 05:12:15;;;;;;;2.57;2.47;;;;;;;22.21;47.16;98484.84;20565698;28;20212;-79
2021/01/27 05:22:17;;;;;;;2.43;2.20;;;;;;;22.36;46.67;98477.06;20534571;28;20215;-79
2021/01/27 05:32:19;;;;;;;3.00;2.80;;;;;;;22.46;46.54;98469.78;20565557;28;20223;-79
2021/01/27 05:42:27;;;;;;;3.20;2.63;;;;;;;22.48;46.66;98472.22;20549570;28;20633;-79
2021/01/27 05:52:29;;;;;;;2.83;2.60;;;;;;;22.44;46.61;98461.31;20537401;28;20220;-78
2021/01/27 06:02:38;;;;;;;2.60;2.40;;;;;;;22.39;46.77;98463.63;20490139;28;20248;-78
2021/01/27 06:12:40;;;;;;;2.37;2.27;;;;;;;22.35;47.11;98463.19;20477669;28;20235;-78
2021/01/27 06:22:51;;;;;;;2.30;2.20;;;;;;;22.31;47.03;98464.53;20516175;28;20243;-78
2021/01/27 06:33:07;;;;;;;2.60;2.43;;;;;;;22.30;47.17;98462.09;20544917;28;20242;-78
2021/01/27 06:43:29;;;;;;;4.03;2.33;;;;;;;22.30;47.50;98462.09;20533536;28;20242;-78
2021/01/27 06:53:49;;;;;;;2.60;2.20;;;;;;;22.33;47.13;98454.72;20506022;28;20283;-78
2021/01/27 07:04:07;;;;;;;2.50;2.30;;;;;;;22.36;47.17;98454.38;20513420;28;20568;-77
2021/01/27 07:14:31;;;;;;;2.70;2.50;;;;;;;22.38;47.10;98446.38;20522620;28;20270;-79
2021/01/27 07:24:34;;;;;;;5.37;2.37;;;;;;;22.39;47.42;98443.56;20499181;28;20242;-79
2021/01/27 07:34:37;;;;;;;2.87;2.67;;;;;;;22.40;47.29;98460.84;20511766;28;20298;-78
2021/01/27 07:44:41;;;;;;;3.70;2.50;;;;;;;22.39;47.35;98480.13;20521004;28;20682;-79
2021/01/27 07:54:44;;;;;;;11.67;7.27;;;;;;;22.24;44.12;98476.66;20527380;28;20255;-79
2021/01/27 08:04:48;;;;;;;9.20;5.83;;;;;;;21.50;43.25;98492.09;20522810;28;20251;-78
2021/01/27 08:15:02;;;;;;;6.20;4.20;;;;;;;21.79;44.52;98471.44;20507234;28;20244;-78
2021/01/27 08:25:06;;;;;;;9.77;4.07;;;;;;;22.01;44.39;98469.84;20522838;28;20321;-79
2021/01/27 08:35:09;;;;;;;9.17;3.83;;;;;;;22.22;44.28;98468.19;20514879;28;20268;-79
2021/01/27 08:45:18;;;;;;;4.17;3.73;;;;;;;22.27;44.87;98460.66;20557740;28;20282;-79
2021/01/27 08:55:55;;;;;;;5.20;3.40;;;;;;;22.32;44.88;98468.75;20535386;28;20320;-77
2021/01/27 09:05:58;;;;;;;6.40;4.37;;;;;;;22.29;45.26;98461.28;20509356;28;20326;-79
2021/01/27 09:16:01;;;;;;;4.07;3.67;;;;;;;22.25;45.41;98457.38;20499701;28;20252;-74
2021/01/27 09:26:12;;;;;;;4.17;3.87;;;;;;;22.26;45.71;98448.59;20522554;28;20714;-74
2021/01/27 09:36:16;;;;;;;4.67;3.97;;;;;;;22.26;45.97;98453.81;20538785;28;20254;-74
2021/01/27 09:46:21;;;;;;;3.73;3.43;;;;;;;22.23;45.94;98438.50;20552709;28;20327;-74
2021/01/27 09:56:22;;;;;;;3.53;3.23;;;;;;;22.27;46.04;98444.97;20534307;28;20289;-74
2021/01/27 10:06:36;;;;;;;5.47;4.20;;;;;;;22.28;46.09;98432.75;20530684;28;20246;-74
2021/01/27 10:16:49;;;;;;;7.30;3.80;;;;;;;22.29;46.02;98432.56;20529966;28;20326;-75
2021/01/27 10:27:00;;;;;;;6.87;4.03;;;;;;;22.27;46.08;98418.88;20535137;28;20313;-74
2021/01/27 10:37:02;;;;;;;4.23;3.83;;;;;;;22.26;46.09;98411.22;20527423;28;20212;-74
2021/01/27 10:47:30;;;;;;;3.93;3.40;;;;;;;22.24;46.20;98403.56;20543040;28;20262;-76
2021/01/27 10:57:31;;;;;;;6.50;4.10;;;;;;;22.26;46.40;98390.34;20543596;28;20259;-75
2021/01/27 11:07:34;;;;;;;3.73;3.43;;;;;;;22.28;46.33;98380.53;20505693;28;20600;-74
2021/01/27 11:17:36;;;;;;;3.47;3.27;;;;;;;22.31;46.25;98367.94;20527970;28;20250;-75
2021/01/27 11:27:38;;;;;;;3.67;3.37;;;;;;;22.33;46.20;98352.91;20516163;28;20310;-75
2021/01/27 11:37:40;;;;;;;3.70;3.40;;;;;;;22.31;46.28;98334.00;20535092;28;20251;-74
2021/01/27 11:47:43;;;;;;;3.30;3.00;;;;;;;22.32;46.47;98321.75;20565040;28;20278;-74
2021/01/27 11:57:44;;;;;;;3.70;3.40;;;;;;;22.30;46.49;98303.63;20537801;28;20302;-75
2021/01/27 12:07:47;;;;;;;3.83;3.10;;;;;;;22.35;46.66;98296.06;20505372;28;20658;-72
2021/01/27 12:17:49;;;;;;;4.10;3.40;;;;;;;22.39;46.70;98286.09;20533415;28;20255;-72
2021/01/27 12:27:52;;;;;;;5.90;3.80;;;;;;;22.42;47.01;98276.09;20501198;28;20243;-73
2021/01/27 12:37:53;;;;;;;6.93;3.73;;;;;;;22.48;46.90;98247.63;20517672;28;20275;-73
2021/01/27 12:47:56;;;;;;;4.10;3.77;;;;;;;22.48;47.04;98240.63;20518705;28;20344;-75
2021/01/27 12:57:59;;;;;;;4.03;3.63;;;;;;;22.49;47.03;98231.00;20512588;28;20244;-74
2021/01/27 13:08:01;;;;;;;3.03;2.83;;;;;;;22.49;47.23;98203.06;20485205;28;20247;-72
2021/01/27 13:18:03;;;;;;;3.03;2.83;;;;;;;22.51;47.11;98205.47;20497005;28;20287;-73
2021/01/27 13:28:06;;;;;;;3.30;3.00;;;;;;;22.54;47.06;98213.78;20489446;28;20514;-73
2021/01/27 13:38:07;;;;;;;9.50;3.67;;;;;;;22.59;47.33;98187.16;20496278;28;20240;-71
2021/01/27 13:48:10;;;;;;;3.87;3.20;;;;;;;22.67;46.76;98169.56;20524420;28;20236;-71
2021/01/27 13:58:12;;;;;;;3.83;3.30;;;;;;;22.75;46.50;98168.59;20521712;28;20743;-71
2021/01/27 14:08:15;;;;;;;5.83;3.57;;;;;;;22.78;46.88;98161.22;20494257;28;20248;-72
2021/01/27 14:18:16;;;;;;;3.17;2.97;;;;;;;22.74;47.02;98151.34;20475451;28;20326;-72
2021/01/27 14:28:18;;;;;;;3.43;3.13;;;;;;;22.72;46.86;98130.63;20469981;28;20591;-72
2021/01/27 14:38:20;;;;;;;5.93;3.80;;;;;;;22.74;46.88;98120.78;20505014;28;20684;-72
2021/01/27 14:48:23;;;;;;;6.93;3.33;;;;;;;22.74;46.90;98114.75;20491216;28;20768;-72
2021/01/27 14:58:24;;;;;;;3.67;3.37;;;;;;;22.71;46.84;98133.38;20511137;28;20739;-72
2021/01/27 15:08:27;;;;;;;4.73;4.20;;;;;;;22.67;47.13;98138.22;20494479;28;20302;-72
2021/01/27 15:18:28;;;;;;;4.47;3.43;;;;;;;22.64;47.48;98135.94;20539875;28;20911;-75
2021/01/27 15:28:31;;;;;;;4.03;3.50;;;;;;;22.61;47.52;98138.94;20488311;28;20283;-74
2021/01/27 15:38:32;;;;;;;3.40;3.10;;;;;;;22.62;47.36;98150.19;20487217;28;20317;-74
2021/01/27 15:48:35;;;;;;;3.77;3.37;;;;;;;22.62;47.76;98139.75;20515863;28;20293;-74
2021/01/27 15:58:36;;;;;;;4.23;3.30;;;;;;;22.62;47.65;98152.81;20520642;28;20259;-74
2021/01/27 16:08:39;;;;;;;4.30;3.50;;;;;;;22.60;48.09;98141.72;20515054;28;20243;-74
2021/01/27 16:18:40;;;;;;;3.00;2.80;;;;;;;22.57;48.16;98152.56;20539942;28;20837;-71
2021/01/27 16:28:43;;;;;;;4.53;3.97;;;;;;;22.57;48.33;98142.13;20577474;28;20823;-72
2021/01/27 16:38:44;;;;;;;8.70;6.70;;;;;;;22.58;48.82;98133.28;20552102;28;20254;-72
2021/01/27 16:48:47;;;;;;;9.70;7.23;;;;;;;22.56;49.24;98124.81;20541311;28;20247;-72
2021/01/27 16:58:49;;;;;;;11.80;7.20;;;;;;;22.56;49.67;98125.63;20513215;28;20247;-72
2021/01/27 17:08:51;;;;;;;10.80;6.53;;;;;;;22.61;49.90;98128.50;20529918;28;20267;-72
2021/01/27 17:18:53;;;;;;;10.07;6.43;;;;;;;22.61;49.86;98112.81;20519430;28;20294;-71
2021/01/27 17:28:56;;;;;;;9.60;6.57;;;;;;;22.63;49.95;98107.41;20549801;28;20215;-73
2021/01/27 17:38:57;;;;;;;9.33;7.30;;;;;;;22.60;50.00;98102.56;20525483;28;20224;-73
2021/01/27 17:49:01;;;;;;;9.17;6.50;;;;;;;22.61;50.06;98118.03;20545943;28;20227;-74
2021/01/27 17:59:03;;;;;;;8.70;5.93;;;;;;;22.59;50.01;98114.81;20529647;28;20278;-73
2021/01/27 18:09:06;;;;;;;9.73;6.23;;;;;;;22.57;49.87;98105.56;20535965;28;20489;-73
2021/01/27 18:19:07;;;;;;;6.40;5.40;;;;;;;22.60;50.14;98110.41;20526274;28;20301;-73
2021/01/27 18:29:10;;;;;;;6.10;5.27;;;;;;;22.64;49.75;98109.03;20540061;28;20244;-72
2021/01/27 18:39:12;;;;;;;11.10;6.60;;;;;;;22.65;49.99;98105.41;20551797;28;20293;-72
2021/01/27 18:49:14;;;;;;;8.13;5.30;;;;;;;22.62;50.03;98108.41;20535836;28;20215;-75
2021/01/27 18:59:16;;;;;;;6.93;5.43;;;;;;;22.60;50.09;98089.50;20536609;28;20223;-72
2021/01/27 19:09:20;;;;;;;7.47;5.63;;;;;;;22.56;50.08;98085.63;20509897;28;20302;-71
2021/01/27 19:19:22;;;;;;;7.37;5.80;;;;;;;22.56;49.83;98098.69;20524326;28;20284;-72
2021/01/27 19:29:24;;;;;;;10.00;5.90;;;;;;;22.56;50.43;98107.34;20543915;28;20278;-74
2021/01/27 19:39:26;;;;;;;16.80;5.90;;;;;;;22.56;50.58;98112.56;20532304;28;20704;-74
2021/01/27 19:49:28;;;;;;;9.37;5.70;;;;;;;22.57;50.86;98110.78;20543678;28;20215;-73
2021/01/27 19:59:30;;;;;;;11.33;6.13;;;;;;;22.59;50.59;98114.81;20545492;28;20277;-72
2021/01/27 20:09:33;;;;;;;7.53;5.13;;;;;;;22.61;50.64;98107.59;20544450;28;20247;-73
2021/01/27 20:19:34;;;;;;;6.30;4.97;;;;;;;22.59;50.93;98116.63;20546122;28;20294;-74
2021/01/27 20:29:37;;;;;;;8.40;5.30;;;;;;;22.57;51.18;98122.03;20557961;28;20675;-72
2021/01/27 20:39:39;;;;;;;10.10;5.67;;;;;;;22.56;50.79;98114.38;20568376;28;20312;-71
2021/01/27 20:49:41;;;;;;;7.87;5.47;;;;;;;22.56;50.88;98125.63;20553302;28;20264;-72
2021/01/27 20:59:43;;;;;;;7.77;5.40;;;;;;;22.56;50.82;98130.03;20567709;28;20220;-72
2021/01/27 21:09:45;;;;;;;8.23;5.00;;;;;;;22.61;50.77;98135.50;20544799;28;20255;-74
2021/01/27 21:19:47;;;;;;;9.20;5.30;;;;;;;22.63;50.65;98139.56;20539862;28;20223;-74
2021/01/27 21:29:49;;;;;;;6.97;5.70;;;;;;;22.64;50.76;98129.94;20554746;28;20216;-73
2021/01/27 21:39:51;;;;;;;6.13;4.73;;;;;;;22.61;50.69;98119.84;20555592;28;20251;-75
2021/01/27 21:49:53;;;;;;;5.03;4.33;;;;;;;22.57;50.77;98116.81;20550993;28;20216;-74
2021/01/27 21:59:55;;;;;;;6.87;4.73;;;;;;;22.56;50.76;98111.75;20548678;28;20326;-74
2021/01/27 22:09:58;;;;;;;8.27;5.07;;;;;;;22.54;50.81;98109.31;20527110;28;20664;-74
2021/01/27 22:19:59;;;;;;;8.13;7.40;;;;;;;22.50;49.39;98121.13;20539174;28;20224;-72
2021/01/27 22:30:03;;;;;;;7.63;7.03;;;;;;;21.91;45.51;98115.25;20533075;28;20274;-72
2021/01/27 22:40:06;;;;;;;6.07;5.57;;;;;;;21.99;46.77;98122.16;20556490;28;20692;-71
